createdAt,value
2018-05-24T00:01:36.379Z,13.80
2018-05-24T00:04:03.857Z,13.80
2018-05-24T00:06:31.422Z,13.70
2018-05-24T00:08:58.886Z,13.70
2018-05-24T00:11:26.310Z,13.70
2018-05-24T00:13:53.757Z,13.60
2018-05-24T00:16:21.982Z,13.60
2018-05-24T00:18:49.418Z,13.50
2018-05-24T00:21:16.890Z,13.60
2018-05-24T00:23:44.570Z,13.50
2018-05-24T00:26:12.017Z,13.50
2018-05-24T00:28:39.413Z,13.50
2018-05-24T00:31:07.633Z,13.50
2018-05-24T00:33:35.293Z,13.40
2018-05-24T00:36:02.713Z,13.40
2018-05-24T00:38:30.910Z,13.40
2018-05-24T00:40:58.376Z,13.40
2018-05-24T00:43:25.826Z,13.30
2018-05-24T00:45:53.255Z,13.30
2018-05-24T00:48:21.448Z,13.20
2018-05-24T00:50:48.978Z,13.20
2018-05-24T00:53:16.718Z,13.10
2018-05-24T00:55:44.117Z,13.20
2018-05-24T00:58:12.310Z,13.10
2018-05-24T01:00:40.093Z,13.10
2018-05-24T01:03:08.181Z,13.10
2018-05-24T01:05:35.607Z,13.00
2018-05-24T01:08:03.125Z,13.00
2018-05-24T01:10:30.550Z,13.00
2018-05-24T01:12:58.630Z,13.00
2018-05-24T01:15:26.239Z,13.00
2018-05-24T01:17:53.602Z,12.90
2018-05-24T01:20:21.095Z,12.90
2018-05-24T01:22:49.171Z,12.90
2018-05-24T01:25:16.590Z,12.80
2018-05-24T01:27:44.030Z,12.80
2018-05-24T01:30:12.217Z,12.80
2018-05-24T01:32:39.639Z,12.70
2018-05-24T01:35:07.070Z,12.70
2018-05-24T01:37:46.762Z,12.70
2018-05-24T01:40:14.955Z,12.60
2018-05-24T01:42:42.373Z,12.60
2018-05-24T01:45:10.228Z,12.70
2018-05-24T01:47:37.641Z,12.60
2018-05-24T01:50:05.173Z,12.70
2018-05-24T01:52:32.591Z,12.60
2018-05-24T01:55:00.253Z,12.60
2018-05-24T01:57:27.670Z,12.50
2018-05-24T01:59:55.085Z,12.50
2018-05-24T02:02:23.486Z,12.50
2018-05-24T02:04:51.673Z,12.40
2018-05-24T02:07:20.003Z,12.50
2018-05-24T02:09:48.335Z,12.40
2018-05-24T02:12:15.750Z,12.50
2018-05-24T02:14:43.181Z,12.50
2018-05-24T02:17:10.626Z,12.50
2018-05-24T02:19:38.094Z,12.50
2018-05-24T02:22:05.518Z,12.50
2018-05-24T02:24:32.966Z,12.50
2018-05-24T02:27:01.150Z,12.50
2018-05-24T02:29:29.412Z,12.50
2018-05-24T02:31:58.218Z,12.50
2018-05-24T02:34:28.874Z,12.50
2018-05-24T02:36:57.233Z,12.40
2018-05-24T02:39:24.694Z,12.40
2018-05-24T02:41:52.135Z,12.50
2018-05-24T02:44:20.340Z,12.50
2018-05-24T02:46:47.751Z,12.50
2018-05-24T02:49:15.175Z,12.50
2018-05-24T02:51:42.614Z,12.50
2018-05-24T02:54:10.035Z,12.40
2018-05-24T02:56:38.222Z,12.50
2018-05-24T02:59:05.704Z,12.50
2018-05-24T03:01:33.559Z,12.60
2018-05-24T03:04:02.062Z,12.50
2018-05-24T03:06:29.503Z,12.50
2018-05-24T03:08:57.603Z,12.60
2018-05-24T03:11:25.947Z,12.60
2018-05-24T03:13:53.414Z,12.70
2018-05-24T03:16:20.846Z,12.70
2018-05-24T03:18:49.046Z,12.70
2018-05-24T03:21:16.473Z,12.70
2018-05-24T03:23:44.668Z,12.70
2018-05-24T03:26:12.258Z,12.70
2018-05-24T03:28:39.805Z,12.60
2018-05-24T03:31:07.243Z,12.60
2018-05-24T03:33:34.658Z,12.60
2018-05-24T03:36:02.083Z,12.60
2018-05-24T03:38:29.502Z,12.60
2018-05-24T03:40:57.345Z,12.60
2018-05-24T03:43:25.531Z,12.60
2018-05-24T03:45:53.721Z,12.60
2018-05-24T03:48:21.247Z,12.60
2018-05-24T03:50:48.817Z,12.60
2018-05-24T03:53:16.226Z,12.60
2018-05-24T03:55:43.812Z,12.50
2018-05-24T03:58:12.194Z,12.60
2018-05-24T04:00:52.423Z,12.60
2018-05-24T04:03:31.662Z,12.60
2018-05-24T04:05:59.725Z,12.70
2018-05-24T04:08:27.210Z,12.80
2018-05-24T04:10:54.643Z,12.80
2018-05-24T04:13:22.069Z,12.90
2018-05-24T04:15:50.907Z,12.90
2018-05-24T04:18:18.372Z,12.90
2018-05-24T04:20:45.799Z,12.80
2018-05-24T04:23:13.244Z,12.90
2018-05-24T04:25:40.651Z,12.90
2018-05-24T04:28:08.074Z,13.00
2018-05-24T04:30:35.520Z,13.00
2018-05-24T04:33:03.113Z,13.00
2018-05-24T04:35:30.450Z,13.00
2018-05-24T04:37:58.512Z,13.10
2018-05-24T04:40:25.926Z,13.10
2018-05-24T04:42:54.326Z,13.20
2018-05-24T04:45:22.223Z,13.10
2018-05-24T04:47:50.517Z,13.20
2018-05-24T04:50:17.946Z,13.30
2018-05-24T04:52:45.915Z,13.40
2018-05-24T04:55:13.351Z,13.60
2018-05-24T04:57:41.755Z,14.20
2018-05-24T05:00:09.182Z,14.20
2018-05-24T05:02:37.389Z,14.70
2018-05-24T05:05:05.659Z,14.70
2018-05-24T05:07:33.085Z,14.90
2018-05-24T05:10:01.471Z,15.20
2018-05-24T05:12:29.647Z,15.50
2018-05-24T05:14:57.466Z,15.50
2018-05-24T05:17:24.895Z,15.70
2018-05-24T05:19:52.312Z,15.90
2018-05-24T05:22:20.618Z,16.20
2018-05-24T05:24:48.074Z,16.20
2018-05-24T05:27:15.510Z,16.60
2018-05-24T05:29:43.823Z,16.60
2018-05-24T05:32:11.286Z,16.60
2018-05-24T05:34:38.694Z,16.90
2018-05-24T05:37:06.905Z,17.00
2018-05-24T05:39:34.338Z,16.90
2018-05-24T05:42:02.557Z,17.00
2018-05-24T05:44:29.938Z,17.10
2018-05-24T05:46:57.887Z,17.40
2018-05-24T05:49:25.304Z,17.80
2018-05-24T05:51:54.002Z,17.50
2018-05-24T05:54:22.317Z,17.90
2018-05-24T05:56:49.876Z,18.20
2018-05-24T05:59:17.294Z,18.60
2018-05-24T06:01:45.097Z,18.10
2018-05-24T06:04:13.250Z,18.40
2018-05-24T06:06:40.669Z,18.40
2018-05-24T06:09:10.014Z,19.20
2018-05-24T06:11:37.443Z,19.20
2018-05-24T06:14:04.899Z,19.20
2018-05-24T06:16:33.018Z,19.10
2018-05-24T06:19:00.441Z,18.80
2018-05-24T06:21:27.956Z,18.90
2018-05-24T06:23:55.487Z,18.70
2018-05-24T06:26:23.440Z,19.00
2018-05-24T06:28:50.896Z,19.00
2018-05-24T06:31:18.343Z,19.30
2018-05-24T06:33:45.826Z,19.60
2018-05-24T06:36:13.790Z,19.90
2018-05-24T06:38:41.486Z,20.00
2018-05-24T06:41:09.023Z,19.80
2018-05-24T06:43:36.566Z,19.90
2018-05-24T06:46:04.042Z,19.40
2018-05-24T06:48:31.466Z,19.70
2018-05-24T06:50:58.883Z,20.20
2018-05-24T06:53:26.396Z,21.10
2018-05-24T06:55:53.821Z,21.50
2018-05-24T06:58:22.030Z,20.90
2018-05-24T07:00:49.470Z,20.90
2018-05-24T07:03:16.990Z,21.20
2018-05-24T07:05:44.510Z,21.30
2018-05-24T07:08:11.985Z,21.40
2018-05-24T07:10:39.427Z,21.50
2018-05-24T07:13:06.900Z,21.30
2018-05-24T07:15:34.314Z,21.10
2018-05-24T07:18:01.845Z,21.50
2018-05-24T07:20:29.265Z,21.90
2018-05-24T07:22:56.698Z,21.80
2018-05-24T07:25:24.122Z,22.40
2018-05-24T07:27:51.628Z,23.00
2018-05-24T07:30:19.110Z,23.10
2018-05-24T07:32:46.534Z,23.30
2018-05-24T07:35:13.990Z,23.90
2018-05-24T07:37:41.916Z,24.70
2018-05-24T07:40:10.231Z,22.70
2018-05-24T07:42:37.662Z,22.70
2018-05-24T07:45:05.993Z,22.80
2018-05-24T07:47:33.355Z,22.80
2018-05-24T07:50:00.900Z,23.20
2018-05-24T07:52:28.325Z,23.20
2018-05-24T07:54:56.654Z,24.20
2018-05-24T07:57:24.094Z,24.10
2018-05-24T07:59:51.554Z,24.00
2018-05-24T08:02:19.419Z,24.70
2018-05-24T08:04:46.855Z,24.90
2018-05-24T08:07:14.283Z,24.70
2018-05-24T08:09:41.703Z,23.90
2018-05-24T08:12:09.251Z,23.80
2018-05-24T08:14:36.696Z,24.60
2018-05-24T08:17:04.118Z,24.40
2018-05-24T08:19:31.551Z,24.20
2018-05-24T08:21:58.974Z,24.60
2018-05-24T08:24:26.426Z,24.50
2018-05-24T08:26:53.895Z,24.90
2018-05-24T08:29:21.355Z,25.00
2018-05-24T08:31:48.829Z,25.20
2018-05-24T08:34:19.182Z,25.60
2018-05-24T08:36:46.622Z,25.50
2018-05-24T08:39:14.053Z,25.70
2018-05-24T08:41:41.517Z,25.90
2018-05-24T08:44:09.690Z,25.80
2018-05-24T08:46:37.110Z,25.80
2018-05-24T08:49:05.422Z,26.10
2018-05-24T08:51:32.828Z,26.10
2018-05-24T08:54:00.352Z,26.20
2018-05-24T08:56:28.003Z,25.90
2018-05-24T08:58:55.562Z,25.80
2018-05-24T09:01:24.089Z,26.20
2018-05-24T09:03:51.527Z,25.70
2018-05-24T09:06:19.142Z,26.00
2018-05-24T09:08:46.558Z,26.60
2018-05-24T09:11:13.987Z,26.40
2018-05-24T09:13:41.459Z,25.80
2018-05-24T09:16:08.926Z,25.90
2018-05-24T09:18:36.351Z,26.00
2018-05-24T09:21:03.780Z,27.30
2018-05-24T09:23:31.991Z,26.40
2018-05-24T09:25:59.430Z,26.40
2018-05-24T09:28:27.531Z,26.60
2018-05-24T09:30:55.177Z,27.70
2018-05-24T09:33:22.623Z,27.30
2018-05-24T09:35:50.115Z,26.60
2018-05-24T09:38:17.551Z,25.80
2018-05-24T09:40:44.983Z,26.50
2018-05-24T09:43:12.430Z,26.20
2018-05-24T09:45:41.362Z,26.10
2018-05-24T09:48:08.794Z,26.10
2018-05-24T09:50:36.243Z,26.40
2018-05-24T09:53:04.679Z,28.10
2018-05-24T09:55:32.102Z,28.10
2018-05-24T09:57:59.574Z,27.50
2018-05-24T10:00:27.235Z,26.20
2018-05-24T10:02:54.668Z,26.40
2018-05-24T10:05:22.856Z,26.50
2018-05-24T10:07:50.327Z,26.40
2018-05-24T10:10:18.170Z,26.70
2018-05-24T10:12:45.630Z,27.30
2018-05-24T10:15:13.059Z,27.00
2018-05-24T10:17:41.260Z,26.90
2018-05-24T10:20:08.762Z,26.90
2018-05-24T10:22:36.198Z,26.90
2018-05-24T10:25:03.660Z,27.90
2018-05-24T10:27:31.074Z,27.40
2018-05-24T10:29:59.391Z,27.80
2018-05-24T10:32:26.815Z,27.80
2018-05-24T10:34:55.010Z,28.30
2018-05-24T10:37:22.437Z,28.30
2018-05-24T10:39:50.656Z,27.90
2018-05-24T10:42:18.110Z,27.90
2018-05-24T10:44:45.582Z,28.00
2018-05-24T10:47:13.032Z,28.90
2018-05-24T10:49:40.502Z,26.90
2018-05-24T10:52:07.932Z,27.10
2018-05-24T10:54:35.386Z,27.50
2018-05-24T10:57:02.822Z,27.40
2018-05-24T10:59:31.084Z,28.20
2018-05-24T11:01:58.498Z,28.20
2018-05-24T11:04:25.942Z,28.00
2018-05-24T11:06:53.362Z,28.10
2018-05-24T11:09:22.304Z,28.80
2018-05-24T11:11:49.766Z,28.80
2018-05-24T11:14:17.191Z,28.10
2018-05-24T11:16:45.500Z,30.80
2018-05-24T11:19:13.057Z,30.70
2018-05-24T11:21:40.542Z,30.20
2018-05-24T11:24:07.962Z,30.00
2018-05-24T11:26:35.425Z,29.80
2018-05-24T11:29:03.194Z,29.70
2018-05-24T11:31:31.506Z,28.80
2018-05-24T11:33:58.951Z,28.50
2018-05-24T11:36:31.314Z,29.40
2018-05-24T11:38:58.742Z,30.00
2018-05-24T11:41:26.266Z,30.40
2018-05-24T11:43:53.698Z,30.90
2018-05-24T11:46:21.445Z,31.00
2018-05-24T11:48:48.854Z,29.80
2018-05-24T11:51:16.270Z,28.10
2018-05-24T11:53:43.721Z,28.30
2018-05-24T11:56:11.307Z,28.60
2018-05-24T11:58:39.019Z,30.20
2018-05-24T12:01:07.230Z,28.90
2018-05-24T12:03:34.659Z,28.80
2018-05-24T12:06:02.091Z,28.50
2018-05-24T12:08:30.526Z,28.70
2018-05-24T12:10:57.949Z,28.70
2018-05-24T12:13:25.533Z,28.50
2018-05-24T12:15:52.987Z,29.50
2018-05-24T12:18:20.406Z,29.70
2018-05-24T12:20:48.593Z,31.80
2018-05-24T12:23:16.019Z,31.80
2018-05-24T12:25:44.946Z,30.20
2018-05-24T12:28:12.386Z,30.30
2018-05-24T12:30:40.806Z,29.60
2018-05-24T12:33:08.598Z,29.60
2018-05-24T12:35:36.121Z,29.30
2018-05-24T12:38:03.462Z,27.90
2018-05-24T12:40:30.914Z,27.20
2018-05-24T12:42:59.119Z,26.90
2018-05-24T12:45:26.530Z,26.90
2018-05-24T12:47:54.738Z,28.50
2018-05-24T12:50:22.312Z,28.40
2018-05-24T12:52:49.766Z,27.30
2018-05-24T12:55:17.199Z,27.80
2018-05-24T12:57:45.413Z,28.10
2018-05-24T13:00:12.848Z,28.00
2018-05-24T13:02:40.554Z,27.60
2018-05-24T13:05:08.187Z,27.40
2018-05-24T13:07:35.627Z,27.70
2018-05-24T13:10:03.815Z,27.20
2018-05-24T13:12:32.194Z,26.50
2018-05-24T13:15:00.630Z,26.50
2018-05-24T13:17:28.875Z,26.50
2018-05-24T13:19:56.329Z,26.50
2018-05-24T13:22:23.818Z,26.50
2018-05-24T13:24:51.351Z,26.90
2018-05-24T13:27:19.022Z,26.80
2018-05-24T13:29:46.504Z,26.80
2018-05-24T13:32:15.518Z,26.80
2018-05-24T13:34:43.806Z,27.40
2018-05-24T13:37:11.298Z,27.50
2018-05-24T13:39:38.870Z,27.20
2018-05-24T13:42:06.481Z,27.10
2018-05-24T13:44:34.663Z,26.40
2018-05-24T13:47:02.086Z,26.40
2018-05-24T13:49:29.559Z,26.80
2018-05-24T13:51:57.773Z,26.30
2018-05-24T13:54:27.178Z,26.30
2018-05-24T13:56:54.608Z,26.30
2018-05-24T13:59:22.941Z,26.60
2018-05-24T14:01:50.529Z,26.70
2018-05-24T14:04:17.974Z,26.80
2018-05-24T14:06:45.512Z,26.70
2018-05-24T14:09:12.993Z,26.80
2018-05-24T14:11:41.182Z,26.10
2018-05-24T14:14:09.504Z,26.40
2018-05-24T14:16:37.067Z,26.40
2018-05-24T14:19:04.510Z,26.00
2018-05-24T14:21:32.149Z,25.80
2018-05-24T14:24:00.574Z,25.50
2018-05-24T14:26:27.990Z,25.40
2018-05-24T14:28:56.194Z,25.30
2018-05-24T14:31:23.608Z,25.20
2018-05-24T14:33:51.949Z,25.30
2018-05-24T14:36:19.827Z,25.40
2018-05-24T14:38:47.253Z,25.70
2018-05-24T14:41:14.696Z,24.90
2018-05-24T14:43:42.274Z,25.40
2018-05-24T14:46:09.705Z,25.50
2018-05-24T14:48:37.926Z,25.30
2018-05-24T14:51:05.375Z,25.30
2018-05-24T14:53:32.793Z,25.10
2018-05-24T14:56:01.000Z,24.70
2018-05-24T14:58:29.361Z,24.70
2018-05-24T15:00:56.830Z,25.10
2018-05-24T15:03:24.329Z,25.50
2018-05-24T15:05:51.758Z,25.90
2018-05-24T15:08:19.190Z,25.80
2018-05-24T15:10:46.618Z,26.10
2018-05-24T15:13:26.742Z,26.20
2018-05-24T15:15:54.190Z,26.20
2018-05-24T15:18:21.802Z,26.00
2018-05-24T15:20:49.999Z,25.70
2018-05-24T15:23:17.573Z,25.70
2018-05-24T15:25:45.010Z,25.40
2018-05-24T15:28:12.446Z,25.40
2018-05-24T15:30:40.669Z,25.00
2018-05-24T15:33:08.374Z,25.00
2018-05-24T15:35:36.226Z,24.90
2018-05-24T15:38:03.874Z,24.60
2018-05-24T15:40:31.289Z,24.60
2018-05-24T15:42:59.602Z,24.60
2018-05-24T15:45:27.046Z,24.60
2018-05-24T15:47:55.956Z,24.90
2018-05-24T15:50:23.381Z,24.80
2018-05-24T15:52:50.807Z,25.20
2018-05-24T15:55:18.235Z,24.90
2018-05-24T15:57:45.675Z,24.80
2018-05-24T16:00:13.264Z,24.90
2018-05-24T16:02:40.689Z,24.70
2018-05-24T16:05:08.114Z,24.90
2018-05-24T16:07:36.342Z,24.20
2018-05-24T16:10:03.766Z,24.20
2018-05-24T16:12:31.255Z,24.20
2018-05-24T16:14:58.743Z,24.40
2018-05-24T16:17:26.277Z,24.10
2018-05-24T16:19:54.153Z,24.00
2018-05-24T16:22:21.583Z,24.10
2018-05-24T16:24:49.147Z,23.80
2018-05-24T16:27:16.882Z,23.40
2018-05-24T16:29:45.222Z,23.20
2018-05-24T16:32:12.639Z,23.20
2018-05-24T16:34:40.103Z,23.30
2018-05-24T16:37:07.524Z,23.30
2018-05-24T16:39:35.779Z,23.50
2018-05-24T16:42:03.202Z,23.50
2018-05-24T16:44:30.618Z,22.90
2018-05-24T16:46:59.043Z,23.00
2018-05-24T16:49:27.418Z,23.00
2018-05-24T16:51:54.841Z,23.00
2018-05-24T16:54:23.120Z,22.50
2018-05-24T16:56:50.474Z,22.50
2018-05-24T16:59:18.663Z,22.30
2018-05-24T17:01:46.121Z,22.30
2018-05-24T17:04:14.301Z,22.20
2018-05-24T17:06:41.882Z,22.20
2018-05-24T17:09:09.570Z,22.40
2018-05-24T17:11:38.506Z,21.70
2018-05-24T17:14:06.197Z,22.20
2018-05-24T17:16:33.617Z,22.00
2018-05-24T17:19:01.811Z,21.70
2018-05-24T17:21:29.298Z,21.60
2018-05-24T17:23:57.374Z,21.50
2018-05-24T17:26:24.818Z,21.20
2018-05-24T17:28:52.243Z,21.20
2018-05-24T17:31:20.467Z,21.10
2018-05-24T17:33:47.883Z,21.00
2018-05-24T17:36:16.703Z,20.90
2018-05-24T17:38:44.357Z,20.90
2018-05-24T17:41:11.871Z,21.00
2018-05-24T17:43:40.068Z,20.80
2018-05-24T17:46:07.818Z,20.70
2018-05-24T17:48:36.010Z,20.40
2018-05-24T17:51:03.575Z,20.40
2018-05-24T17:53:31.003Z,20.40
2018-05-24T17:56:14.409Z,20.40
2018-05-24T17:58:41.854Z,20.30
2018-05-24T18:01:09.279Z,20.20
2018-05-24T18:03:36.862Z,20.00
2018-05-24T18:06:04.325Z,20.00
2018-05-24T18:08:31.754Z,20.00
2018-05-24T18:10:59.206Z,19.90
2018-05-24T18:13:27.227Z,19.80
2018-05-24T18:15:54.790Z,19.70
2018-05-24T18:18:22.237Z,19.70
2018-05-24T18:20:49.653Z,19.50
2018-05-24T18:23:17.187Z,19.50
2018-05-24T18:25:45.809Z,19.40
2018-05-24T18:28:13.534Z,19.40
2018-05-24T18:30:40.974Z,19.20
2018-05-24T18:33:08.426Z,19.30
2018-05-24T18:35:35.861Z,19.30
2018-05-24T18:38:03.418Z,19.20
2018-05-24T18:40:31.084Z,19.10
2018-05-24T18:43:00.649Z,18.90
2018-05-24T18:45:29.518Z,19.00
2018-05-24T18:47:58.134Z,18.90
2018-05-24T18:50:26.364Z,18.80
2018-05-24T18:52:53.902Z,18.80
2018-05-24T18:55:21.410Z,18.80
2018-05-24T18:57:48.853Z,18.70
2018-05-24T19:00:17.088Z,18.60
2018-05-24T19:02:44.551Z,18.60
2018-05-24T19:05:11.977Z,18.60
2018-05-24T19:07:40.215Z,18.40
2018-05-24T19:10:07.670Z,18.40
2018-05-24T19:12:35.101Z,18.30
2018-05-24T19:15:02.967Z,18.20
2018-05-24T19:17:30.495Z,18.10
2018-05-24T19:19:58.697Z,18.00
2018-05-24T19:22:28.043Z,18.00
2018-05-24T19:24:55.462Z,18.00
2018-05-24T19:27:22.905Z,18.00
2018-05-24T19:29:50.401Z,17.90
2018-05-24T19:32:17.818Z,17.90
2018-05-24T19:34:45.493Z,17.80
2018-05-24T19:37:12.863Z,17.70
2018-05-24T19:39:40.308Z,17.70
2018-05-24T19:42:07.765Z,17.60
2018-05-24T19:44:35.254Z,17.60
2018-05-24T19:47:02.681Z,17.40
2018-05-24T19:49:30.346Z,17.40
2018-05-24T19:51:57.814Z,17.40
2018-05-24T19:54:26.094Z,17.30
2018-05-24T19:56:53.655Z,17.20
2018-05-24T19:59:21.070Z,17.20
2018-05-24T20:01:48.557Z,17.10
2018-05-24T20:04:16.682Z,17.10
2018-05-24T20:06:44.150Z,16.90
2018-05-24T20:09:12.509Z,16.90
2018-05-24T20:11:40.617Z,16.90
2018-05-24T20:14:08.921Z,16.80
2018-05-24T20:16:36.526Z,16.80
2018-05-24T20:19:03.984Z,16.80
2018-05-24T20:21:31.441Z,16.80
2018-05-24T20:23:59.103Z,16.80
2018-05-24T20:26:26.586Z,16.80
2018-05-24T20:28:54.807Z,16.70
2018-05-24T20:31:22.433Z,16.70
2018-05-24T20:33:51.649Z,16.50
2018-05-24T20:36:19.157Z,16.50
2018-05-24T20:38:48.456Z,16.50
2018-05-24T20:41:16.659Z,16.50
2018-05-24T20:43:44.877Z,16.60
2018-05-24T20:46:12.338Z,16.50
2018-05-24T20:48:39.802Z,16.50
2018-05-24T20:51:07.289Z,16.60
2018-05-24T20:53:34.751Z,16.50
2018-05-24T20:56:02.202Z,16.40
2018-05-24T20:58:29.684Z,16.40
2018-05-24T21:00:58.137Z,16.30
2018-05-24T21:03:25.601Z,16.20
2018-05-24T21:05:53.085Z,16.20
2018-05-24T21:08:20.618Z,16.10
2018-05-24T21:10:48.994Z,16.10
2018-05-24T21:13:17.293Z,16.20
2018-05-24T21:15:45.518Z,16.10
2018-05-24T21:18:12.969Z,16.10
2018-05-24T21:20:40.689Z,16.10
2018-05-24T21:23:08.960Z,16.10
2018-05-24T21:25:36.413Z,16.10
2018-05-24T21:28:03.909Z,16.20
2018-05-24T21:30:31.357Z,16.10
2018-05-24T21:32:59.578Z,15.90
2018-05-24T21:35:27.051Z,15.90
2018-05-24T21:37:54.507Z,16.00
2018-05-24T21:40:22.669Z,16.00
2018-05-24T21:42:50.157Z,15.90
2018-05-24T21:45:17.618Z,15.80
2018-05-24T21:47:45.971Z,15.80
2018-05-24T21:50:13.465Z,15.80
2018-05-24T21:52:41.713Z,15.60
2018-05-24T21:55:09.173Z,15.60
2018-05-24T21:57:38.157Z,15.60
2018-05-24T22:00:05.826Z,15.60
2018-05-24T22:02:33.287Z,15.60
2018-05-24T22:05:00.782Z,15.60
2018-05-24T22:07:28.288Z,15.50
2018-05-24T22:09:55.765Z,15.50
2018-05-24T22:12:23.549Z,15.30
2018-05-24T22:14:51.765Z,15.30
2018-05-24T22:17:19.467Z,15.30
2018-05-24T22:19:47.689Z,15.20
2018-05-24T22:22:15.204Z,15.20
2018-05-24T22:24:42.857Z,15.20
2018-05-24T22:27:11.088Z,15.20
2018-05-24T22:29:38.586Z,15.20
2018-05-24T22:32:06.051Z,15.10
2018-05-24T22:34:33.509Z,15.00
2018-05-24T22:37:00.978Z,15.00
2018-05-24T22:39:28.525Z,15.00
2018-05-24T22:41:55.993Z,14.90
2018-05-24T22:44:23.445Z,15.00
2018-05-24T22:46:50.902Z,15.00
2018-05-24T22:49:18.399Z,14.90
2018-05-24T22:51:45.853Z,14.90
2018-05-24T22:54:13.461Z,14.90
2018-05-24T22:56:40.949Z,14.80
2018-05-24T22:59:08.401Z,14.80
2018-05-24T23:01:35.862Z,14.80
2018-05-24T23:04:04.477Z,14.70
2018-05-24T23:06:32.001Z,14.70
2018-05-24T23:08:59.461Z,14.80
2018-05-24T23:11:27.117Z,14.80
2018-05-24T23:13:54.648Z,14.80
2018-05-24T23:16:22.102Z,14.80
2018-05-24T23:18:49.593Z,14.70
2018-05-24T23:21:17.649Z,14.80
2018-05-24T23:23:45.105Z,14.70
2018-05-24T23:26:12.557Z,14.70
2018-05-24T23:28:40.246Z,14.60
2018-05-24T23:31:07.697Z,14.60
2018-05-24T23:33:35.157Z,14.50
2018-05-24T23:36:02.642Z,14.50
2018-05-24T23:38:30.894Z,14.50
2018-05-24T23:40:58.481Z,14.40
2018-05-24T23:43:26.712Z,14.40
2018-05-24T23:45:54.687Z,14.40
2018-05-24T23:48:22.201Z,14.40
2018-05-24T23:50:49.710Z,14.30
2018-05-24T23:53:17.333Z,14.30
2018-05-24T23:55:44.865Z,14.30
2018-05-24T23:58:13.522Z,14.30
